Time;durP1;ratioP1;P1;durP2;ratioP2;P2;SDS_P1;SDS_P2;PMS_P1;PMS_P2;Temp;Humidity;BMP_temperature;BMP_pressure;BME280_temperature;BME280_humidity;BME280_pressure;Samples;Min_cycle;Max_cycle;Signal;HPM_P1;HPM_P2
2023/09/04 00:00:58;;;;;;;6.10;5.50;;;17.00;99.90;;;;;;5062232;28;20700;-71
2023/09/04 00:03:26;;;;;;;5.78;5.38;;;17.00;99.90;;;;;;5062183;28;20503;-71
2023/09/04 00:05:53;;;;;;;6.00;5.50;;;17.00;99.90;;;;;;5062357;28;20877;-71
2023/09/04 00:08:20;;;;;;;5.55;5.15;;;17.00;99.90;;;;;;5063413;28;20427;-71
2023/09/04 00:10:47;;;;;;;5.55;5.05;;;17.00;99.90;;;;;;5066538;28;20409;-71
2023/09/04 00:13:15;;;;;;;5.35;4.85;;;17.00;99.90;;;;;;5074711;28;20856;-71
2023/09/04 00:15:42;;;;;;;5.85;5.25;;;16.90;99.90;;;;;;5063259;28;20433;-71
2023/09/04 00:18:09;;;;;;;5.70;5.20;;;16.90;99.90;;;;;;5062355;28;20481;-71
2023/09/04 00:20:36;;;;;;;5.90;5.40;;;16.90;99.90;;;;;;5065077;28;20711;-71
2023/09/04 00:23:03;;;;;;;5.60;5.20;;;16.90;99.90;;;;;;5073523;28;20464;-72
2023/09/04 00:25:29;;;;;;;5.40;5.00;;;16.90;99.90;;;;;;5064066;28;20408;-71
2023/09/04 00:27:57;;;;;;;5.40;4.90;;;16.90;99.90;;;;;;5065111;28;20862;-73
2023/09/04 00:30:26;;;;;;;5.50;5.00;;;16.90;99.90;;;;;;5070683;28;20447;-72
2023/09/04 00:32:53;;;;;;;5.47;5.00;;;16.80;99.90;;;;;;5058174;28;20484;-73
2023/09/04 00:35:19;;;;;;;5.68;5.18;;;16.80;99.90;;;;;;5062835;28;20439;-73
2023/09/04 00:37:46;;;;;;;5.82;5.32;;;16.80;99.90;;;;;;5066822;28;20449;-73
2023/09/04 00:40:13;;;;;;;5.95;5.45;;;16.70;99.90;;;;;;5062867;28;20415;-73
2023/09/04 00:42:40;;;;;;;5.75;5.35;;;16.70;99.90;;;;;;5074540;28;20418;-73
2023/09/04 00:45:11;;;;;;;5.40;5.00;;;16.70;99.90;;;;;;5066270;28;21013;-73
2023/09/04 00:47:41;;;;;;;5.75;5.25;;;16.60;99.90;;;;;;5066298;28;20710;-73
2023/09/04 00:50:10;;;;;;;6.00;5.40;;;16.60;99.90;;;;;;5066263;28;20422;-73
2023/09/04 00:52:38;;;;;;;6.30;5.70;;;16.60;99.90;;;;;;5067382;28;20423;-71
2023/09/04 00:55:06;;;;;;;6.20;5.60;;;16.50;99.90;;;;;;5072553;28;20485;-71
2023/09/04 00:57:35;;;;;;;5.70;5.20;;;16.50;99.90;;;;;;5065030;28;20659;-71
2023/09/04 01:00:07;;;;;;;6.38;5.88;;;16.50;99.90;;;;;;5057738;28;20435;-72
2023/09/04 01:02:34;;;;;;;5.93;5.40;;;16.50;99.90;;;;;;5065132;28;20458;-72
2023/09/04 01:05:02;;;;;;;6.40;5.85;;;16.40;99.90;;;;;;5065402;28;20786;-72
2023/09/04 01:07:29;;;;;;;5.80;5.30;;;16.40;99.90;;;;;;5064980;28;20790;-71
2023/09/04 01:09:56;;;;;;;6.38;5.88;;;16.40;99.90;;;;;;5065311;28;20408;-72
2023/09/04 01:12:27;;;;;;;6.18;5.68;;;16.40;99.90;;;;;;5065201;28;20881;-71
2023/09/04 01:14:56;;;;;;;5.63;5.18;;;16.40;99.90;;;;;;5060147;28;20836;-72
2023/09/04 01:17:23;;;;;;;5.78;5.38;;;16.40;99.90;;;;;;5065500;28;20500;-71
2023/09/04 01:19:50;;;;;;;6.30;5.80;;;16.40;99.90;;;;;;5073800;28;20489;-71
2023/09/04 01:22:18;;;;;;;6.10;5.70;;;16.30;99.90;;;;;;5066915;28;20404;-71
2023/09/04 01:24:46;;;;;;;5.80;5.40;;;16.30;99.90;;;;;;5065762;28;20449;-71
2023/09/04 01:27:22;;;;;;;5.97;5.37;;;16.30;99.90;;;;;;5064887;28;20774;-72
2023/09/04 01:29:57;;;;;;;6.10;5.60;;;16.30;99.90;;;;;;5061454;28;20898;-72
2023/09/04 01:32:29;;;;;;;7.13;6.30;;;16.20;99.90;;;;;;5065228;28;20446;-72
2023/09/04 01:34:57;;;;;;;6.05;5.53;;;16.20;99.90;;;;;;5064773;28;20435;-71
2023/09/04 01:37:25;;;;;;;5.60;5.10;;;16.20;99.90;;;;;;5066689;28;20558;-71
2023/09/04 01:39:53;;;;;;;6.22;5.63;;;16.10;99.90;;;;;;5071662;28;20419;-71
2023/09/04 01:42:20;;;;;;;6.18;5.63;;;16.10;99.90;;;;;;5064902;28;20848;-72
2023/09/04 01:44:46;;;;;;;6.20;5.70;;;16.10;99.90;;;;;;5064807;28;20430;-72
2023/09/04 01:47:13;;;;;;;6.07;5.57;;;16.10;99.90;;;;;;5063434;28;20435;-71
2023/09/04 01:49:40;;;;;;;6.40;5.90;;;16.10;99.90;;;;;;5064822;28;20473;-71
2023/09/04 01:52:08;;;;;;;6.90;6.20;;;16.00;99.90;;;;;;5066258;28;20434;-72
2023/09/04 01:54:36;;;;;;;6.80;6.22;;;16.00;99.90;;;;;;5066445;28;20866;-71
2023/09/04 01:57:03;;;;;;;6.45;5.85;;;16.00;99.90;;;;;;5063448;28;20435;-73
2023/09/04 01:59:29;;;;;;;6.20;5.60;;;16.00;99.90;;;;;;5064038;28;20527;-71
2023/09/04 02:01:56;;;;;;;6.40;5.90;;;16.00;99.90;;;;;;5065316;28;20483;-71
2023/09/04 02:04:23;;;;;;;6.53;5.93;;;16.00;99.90;;;;;;5064638;28;20438;-72
2023/09/04 02:06:50;;;;;;;6.32;5.82;;;15.90;99.90;;;;;;5074944;28;20433;-71
2023/09/04 02:09:17;;;;;;;6.30;5.80;;;15.90;99.90;;;;;;5064166;28;20426;-71
2023/09/04 02:11:45;;;;;;;6.35;5.85;;;16.00;99.90;;;;;;5062093;28;20882;-71
2023/09/04 02:14:12;;;;;;;6.35;5.75;;;16.00;99.90;;;;;;5064050;28;20591;-71
2023/09/04 02:16:38;;;;;;;6.57;5.80;;;15.90;99.90;;;;;;5064509;28;20423;-71
2023/09/04 02:19:05;;;;;;;6.20;5.70;;;15.90;99.90;;;;;;5065366;28;20414;-71
2023/09/04 02:21:32;;;;;;;6.07;5.53;;;15.90;99.90;;;;;;5063862;28;20929;-71
2023/09/04 02:23:59;;;;;;;6.50;5.90;;;15.90;99.90;;;;;;5068893;28;20542;-71
2023/09/04 02:26:26;;;;;;;6.25;5.75;;;15.80;99.90;;;;;;5066978;28;20480;-71
2023/09/04 02:28:54;;;;;;;6.20;5.70;;;15.80;99.90;;;;;;5064883;28;20429;-72
2023/09/04 02:31:20;;;;;;;6.25;5.75;;;15.80;99.90;;;;;;5070249;28;20422;-72
2023/09/04 02:33:47;;;;;;;6.20;5.68;;;15.80;99.90;;;;;;5064375;28;20502;-71
2023/09/04 02:36:14;;;;;;;5.90;5.40;;;15.80;99.90;;;;;;5062736;28;20424;-71
2023/09/04 02:38:41;;;;;;;6.45;5.95;;;15.80;99.90;;;;;;5074682;28;20412;-71
2023/09/04 02:41:08;;;;;;;5.95;5.47;;;15.70;99.90;;;;;;5069127;28;20508;-71
2023/09/04 02:43:35;;;;;;;5.90;5.40;;;15.70;99.90;;;;;;5064272;28;20470;-72
2023/09/04 02:46:03;;;;;;;6.35;5.75;;;15.80;99.90;;;;;;5065370;28;20419;-71
2023/09/04 02:48:29;;;;;;;5.75;5.20;;;15.80;99.90;;;;;;5064185;28;20412;-71
2023/09/04 02:50:58;;;;;;;5.50;5.10;;;15.70;99.90;;;;;;5067333;28;20792;-71
2023/09/04 02:53:26;;;;;;;5.97;5.38;;;15.70;99.90;;;;;;5065062;28;20446;-71
2023/09/04 02:55:53;;;;;;;5.23;4.83;;;15.70;99.90;;;;;;5063360;28;20542;-73
2023/09/04 02:58:21;;;;;;;5.43;4.93;;;15.70;99.90;;;;;;5064050;28;20522;-72
2023/09/04 03:00:48;;;;;;;5.70;5.30;;;15.70;99.90;;;;;;5062901;28;20415;-71
2023/09/04 03:03:16;;;;;;;6.00;5.22;;;15.70;99.90;;;;;;5063178;28;20424;-72
2023/09/04 03:05:43;;;;;;;5.60;5.10;;;15.70;99.90;;;;;;5065904;28;20419;-71
2023/09/04 03:08:10;;;;;;;5.57;5.18;;;15.70;99.90;;;;;;5070313;28;20500;-71
2023/09/04 03:10:36;;;;;;;5.80;5.30;;;15.60;99.90;;;;;;5062862;28;20454;-72
2023/09/04 03:13:03;;;;;;;5.45;4.95;;;15.60;99.90;;;;;;5063887;28;20427;-71
2023/09/04 03:15:30;;;;;;;5.70;5.23;;;15.60;99.90;;;;;;5063315;28;20899;-71
2023/09/04 03:17:57;;;;;;;5.50;5.00;;;15.60;99.90;;;;;;5061897;28;21031;-71
2023/09/04 03:20:25;;;;;;;5.75;5.25;;;15.60;99.90;;;;;;5063620;28;20446;-71
2023/09/04 03:22:52;;;;;;;5.90;5.40;;;15.60;99.90;;;;;;5063351;28;20430;-71
2023/09/04 03:25:19;;;;;;;5.80;5.30;;;15.60;99.90;;;;;;5061406;28;20783;-71
2023/09/04 03:27:45;;;;;;;6.30;5.80;;;15.60;99.90;;;;;;5062400;28;20416;-71
2023/09/04 03:30:13;;;;;;;5.70;5.22;;;15.60;99.90;;;;;;5062717;28;20415;-71
2023/09/04 03:32:40;;;;;;;6.35;5.75;;;15.50;99.90;;;;;;5062416;28;20408;-71
2023/09/04 03:35:07;;;;;;;5.70;5.20;;;15.50;99.90;;;;;;5057115;28;20443;-73
2023/09/04 03:37:36;;;;;;;7.13;6.03;;;15.50;99.90;;;;;;5063690;28;20537;-71
2023/09/04 03:40:19;;;;;;;6.30;5.70;;;15.50;99.90;;;;;;5060523;28;20466;-71
2023/09/04 03:42:46;;;;;;;6.03;5.53;;;15.50;99.90;;;;;;5065861;28;21613;-71
2023/09/04 03:45:13;;;;;;;5.50;5.00;;;15.50;99.90;;;;;;5069615;28;20419;-71
2023/09/04 03:47:40;;;;;;;5.93;5.43;;;15.40;99.90;;;;;;5063009;28;20438;-72
2023/09/04 03:50:10;;;;;;;6.07;5.57;;;15.40;99.90;;;;;;5062841;28;20424;-71
2023/09/04 03:52:39;;;;;;;5.97;5.47;;;15.40;99.90;;;;;;5063045;28;20419;-72
2023/09/04 03:55:06;;;;;;;6.37;5.77;;;15.30;99.90;;;;;;5063427;28;20439;-72
2023/09/04 03:57:34;;;;;;;5.45;4.95;;;15.30;99.90;;;;;;5063663;28;20442;-72
2023/09/04 04:00:01;;;;;;;5.75;5.25;;;15.30;99.90;;;;;;5062981;28;20423;-72
2023/09/04 04:02:28;;;;;;;5.72;5.25;;;15.30;99.90;;;;;;5071257;28;20423;-71
2023/09/04 04:04:55;;;;;;;5.50;5.00;;;15.20;99.90;;;;;;5063854;28;20908;-72
2023/09/04 04:07:22;;;;;;;6.00;5.50;;;15.20;99.90;;;;;;5061968;28;20433;-72
2023/09/04 04:09:50;;;;;;;5.50;5.10;;;15.20;99.90;;;;;;5063106;28;20420;-71
2023/09/04 04:12:16;;;;;;;6.30;5.80;;;15.20;99.90;;;;;;5062323;28;20679;-72
2023/09/04 04:14:43;;;;;;;5.85;5.35;;;15.20;99.90;;;;;;5065815;28;20485;-71
2023/09/04 04:17:10;;;;;;;6.68;6.07;;;15.10;99.90;;;;;;5072660;28;20434;-71
2023/09/04 04:19:38;;;;;;;5.82;5.32;;;15.10;99.90;;;;;;5074628;28;20541;-72
2023/09/04 04:22:05;;;;;;;6.28;5.40;;;15.10;99.90;;;;;;5060059;28;20995;-71
2023/09/04 04:24:32;;;;;;;7.07;5.72;;;15.20;99.90;;;;;;5065613;28;20546;-72
2023/09/04 04:27:00;;;;;;;7.38;5.47;;;15.20;99.90;;;;;;5066903;28;20462;-72
2023/09/04 04:29:27;;;;;;;6.68;5.78;;;15.10;99.90;;;;;;5068321;28;20726;-71
2023/09/04 04:31:54;;;;;;;6.20;5.30;;;15.10;99.90;;;;;;5067285;28;20468;-71
2023/09/04 04:34:21;;;;;;;5.82;5.20;;;15.20;99.90;;;;;;5067022;28;20758;-71
2023/09/04 04:36:53;;;;;;;7.75;5.93;;;15.20;99.90;;;;;;5065328;28;20435;-72
2023/09/04 04:39:19;;;;;;;6.93;5.75;;;15.10;99.90;;;;;;5066415;28;20783;-71
2023/09/04 04:41:46;;;;;;;8.73;5.85;;;15.10;99.90;;;;;;5070162;28;20460;-71
2023/09/04 04:44:14;;;;;;;6.47;5.60;;;15.10;99.90;;;;;;5076934;28;20417;-71
2023/09/04 04:46:41;;;;;;;6.25;5.45;;;15.20;99.90;;;;;;5067446;28;20422;-70
2023/09/04 04:49:09;;;;;;;6.75;5.55;;;15.20;99.90;;;;;;5066802;28;20407;-71
2023/09/04 04:51:36;;;;;;;5.47;4.97;;;15.20;99.90;;;;;;5086085;22;20445;-69
2023/09/04 04:54:02;;;;;;;5.53;5.00;;;15.10;99.90;;;;;;5060142;28;20419;-69
2023/09/04 04:56:29;;;;;;;5.55;5.05;;;15.10;99.90;;;;;;5067496;28;20434;-69
2023/09/04 04:58:56;;;;;;;5.80;5.30;;;15.10;99.90;;;;;;5071175;28;20409;-68
2023/09/04 05:01:24;;;;;;;5.30;4.80;;;15.10;99.90;;;;;;5062991;28;20428;-67
2023/09/04 05:03:50;;;;;;;5.60;5.10;;;15.10;99.90;;;;;;5062761;28;20423;-69
2023/09/04 05:06:17;;;;;;;5.70;5.20;;;15.20;99.90;;;;;;5071434;28;20423;-68
2023/09/04 05:08:44;;;;;;;5.60;5.17;;;15.20;99.90;;;;;;5073943;28;20468;-67
2023/09/04 05:11:11;;;;;;;5.27;4.87;;;15.20;99.90;;;;;;5074053;28;20468;-67
2023/09/04 05:13:37;;;;;;;6.30;5.20;;;15.20;99.90;;;;;;5073493;28;20408;-68
2023/09/04 05:16:05;;;;;;;5.80;5.30;;;15.10;99.90;;;;;;5073133;28;20729;-68
2023/09/04 05:18:33;;;;;;;5.45;4.93;;;15.10;99.90;;;;;;5073425;28;20775;-67
2023/09/04 05:21:00;;;;;;;5.78;5.15;;;15.10;99.90;;;;;;5071359;28;20432;-67
2023/09/04 05:23:27;;;;;;;5.43;4.93;;;15.10;99.90;;;;;;5073363;28;20498;-68
2023/09/04 05:25:54;;;;;;;6.00;5.47;;;15.10;99.90;;;;;;5072878;28;20890;-67
2023/09/04 05:28:21;;;;;;;6.20;5.60;;;15.10;99.90;;;;;;5073191;28;20486;-68
2023/09/04 05:30:48;;;;;;;5.85;5.07;;;15.10;99.90;;;;;;5072623;28;20902;-68
2023/09/04 05:33:15;;;;;;;5.40;4.90;;;15.10;99.90;;;;;;5071339;28;20431;-68
2023/09/04 05:35:43;;;;;;;5.50;5.00;;;15.10;99.90;;;;;;5071769;28;20778;-68
2023/09/04 05:38:10;;;;;;;7.10;5.10;;;15.10;99.90;;;;;;5071094;28;20428;-68
2023/09/04 05:40:36;;;;;;;5.15;4.65;;;15.10;99.90;;;;;;5073861;28;20411;-67
2023/09/04 05:43:03;;;;;;;6.07;4.88;;;15.10;99.90;;;;;;5072936;28;20408;-68
2023/09/04 05:45:30;;;;;;;5.35;4.75;;;15.10;99.90;;;;;;5072950;28;20824;-68
2023/09/04 05:47:57;;;;;;;5.53;5.03;;;15.20;99.90;;;;;;5068806;28;20410;-68
2023/09/04 05:50:23;;;;;;;5.50;4.68;;;15.20;99.90;;;;;;5067843;28;20438;-67
2023/09/04 05:52:53;;;;;;;5.47;4.97;;;15.20;99.90;;;;;;5072274;28;20414;-67
2023/09/04 05:55:20;;;;;;;4.90;4.50;;;15.20;99.90;;;;;;5064355;28;20429;-68
2023/09/04 05:57:46;;;;;;;4.70;4.30;;;15.20;99.90;;;;;;5058021;28;20427;-68
2023/09/04 06:00:14;;;;;;;4.82;4.43;;;15.30;99.90;;;;;;5063257;28;20430;-68
2023/09/04 06:02:40;;;;;;;4.65;4.25;;;15.30;99.90;;;;;;5070197;28;20690;-67
2023/09/04 06:05:08;;;;;;;5.20;4.70;;;15.30;99.90;;;;;;5065270;28;20424;-68
2023/09/04 06:07:35;;;;;;;4.90;4.50;;;15.30;99.90;;;;;;5071973;28;20906;-67
2023/09/04 06:10:04;;;;;;;4.50;4.10;;;15.30;99.90;;;;;;5055621;28;20413;-68
2023/09/04 06:12:31;;;;;;;4.60;4.20;;;15.40;99.90;;;;;;5056143;28;20417;-68
2023/09/04 06:14:57;;;;;;;5.40;4.90;;;15.40;99.90;;;;;;5070804;28;20413;-67
2023/09/04 06:17:24;;;;;;;4.80;4.30;;;15.40;99.90;;;;;;5058495;28;20426;-67
2023/09/04 06:19:51;;;;;;;5.20;4.70;;;15.50;99.90;;;;;;5069774;28;20431;-68
2023/09/04 06:22:17;;;;;;;4.72;4.22;;;15.50;99.90;;;;;;5070823;28;20709;-68
2023/09/04 06:24:44;;;;;;;4.68;4.28;;;15.50;99.90;;;;;;5059743;28;20412;-68
2023/09/04 06:27:12;;;;;;;5.28;4.22;;;15.60;99.90;;;;;;5065954;28;20427;-68
2023/09/04 06:29:39;;;;;;;5.30;4.80;;;15.70;99.90;;;;;;5069625;28;20419;-68
2023/09/04 06:32:06;;;;;;;4.30;3.70;;;15.70;99.90;;;;;;5058435;28;20416;-68
2023/09/04 06:34:33;;;;;;;5.23;4.10;;;15.80;99.90;;;;;;5065553;28;20808;-68
2023/09/04 06:36:59;;;;;;;4.47;4.07;;;15.80;99.90;;;;;;5059388;28;20952;-68
2023/09/04 06:39:26;;;;;;;5.32;4.10;;;15.90;99.90;;;;;;5054204;28;20420;-68
2023/09/04 06:41:53;;;;;;;5.23;4.00;;;15.90;99.90;;;;;;5059357;28;20434;-68
2023/09/04 06:44:21;;;;;;;5.07;3.83;;;16.00;99.90;;;;;;5061103;28;20420;-68
2023/09/04 06:46:48;;;;;;;5.57;4.10;;;16.10;99.90;;;;;;5068163;28;20435;-68
2023/09/04 06:49:15;;;;;;;4.35;3.95;;;16.10;99.90;;;;;;5069852;28;20419;-68
2023/09/04 06:51:42;;;;;;;4.30;3.50;;;16.20;99.90;;;;;;5062220;28;20482;-68
2023/09/04 06:54:09;;;;;;;4.20;3.25;;;16.30;99.90;;;;;;5063454;28;20431;-68
2023/09/04 06:56:36;;;;;;;3.70;3.40;;;16.30;99.90;;;;;;5065271;28;20505;-68
2023/09/04 06:59:02;;;;;;;3.70;3.40;;;16.40;99.90;;;;;;5071777;28;20418;-68
2023/09/04 07:01:30;;;;;;;3.40;3.10;;;16.50;99.90;;;;;;5067446;28;20909;-68
2023/09/04 07:03:57;;;;;;;3.30;3.00;;;16.60;99.90;;;;;;5062906;28;20471;-68
2023/09/04 07:06:24;;;;;;;3.50;3.20;;;16.60;99.70;;;;;;5067892;28;20471;-68
2023/09/04 07:08:52;;;;;;;6.75;3.17;;;16.70;99.60;;;;;;5061889;28;20407;-68
2023/09/04 07:11:19;;;;;;;3.50;3.20;;;16.80;99.00;;;;;;5056248;28;20761;-68
2023/09/04 07:13:46;;;;;;;3.30;2.83;;;16.90;99.10;;;;;;5055647;28;20920;-68
2023/09/04 07:16:13;;;;;;;3.30;3.00;;;17.00;98.60;;;;;;5055644;28;20740;-67
2023/09/04 07:18:41;;;;;;;3.30;2.60;;;17.10;98.20;;;;;;5064236;28;20801;-68
2023/09/04 07:21:08;;;;;;;3.08;2.78;;;17.20;96.80;;;;;;5057759;28;20422;-68
2023/09/04 07:23:34;;;;;;;3.42;2.60;;;17.30;97.10;;;;;;5060537;28;20433;-68
2023/09/04 07:26:01;;;;;;;2.85;2.60;;;17.50;96.10;;;;;;5064291;28;20427;-67
2023/09/04 07:28:28;;;;;;;3.20;2.60;;;17.60;95.60;;;;;;5063554;28;20413;-68
2023/09/04 07:31:13;;;;;;;3.83;2.42;;;17.70;94.90;;;;;;5067098;28;20514;-68
2023/09/04 07:33:41;;;;;;;3.20;2.40;;;17.80;94.40;;;;;;5069638;28;20415;-69
2023/09/04 07:36:08;;;;;;;3.88;2.67;;;17.90;94.10;;;;;;5058732;28;20409;-67
2023/09/04 07:38:34;;;;;;;2.72;2.28;;;18.10;94.10;;;;;;5064805;28;20435;-67
2023/09/04 07:41:02;;;;;;;3.30;2.30;;;18.20;93.70;;;;;;5060997;28;20416;-67
2023/09/04 07:43:31;;;;;;;3.22;2.55;;;18.30;93.20;;;;;;5056898;28;20970;-67
2023/09/04 07:45:58;;;;;;;2.95;2.60;;;18.50;92.80;;;;;;5070301;28;20427;-67
2023/09/04 07:48:25;;;;;;;2.95;2.05;;;18.60;92.40;;;;;;5071147;28;20782;-67
2023/09/04 07:50:53;;;;;;;3.05;2.40;;;18.80;91.50;;;;;;5056234;28;20797;-67
2023/09/04 07:53:20;;;;;;;2.65;2.45;;;18.90;90.90;;;;;;5059370;28;20418;-67
2023/09/04 07:55:46;;;;;;;2.55;2.35;;;19.00;90.10;;;;;;5058401;28;20909;-67
2023/09/04 07:58:13;;;;;;;2.40;2.20;;;19.10;89.70;;;;;;5057727;28;20906;-67
2023/09/04 08:00:44;;;;;;;3.00;2.20;;;19.20;90.00;;;;;;5070683;28;20810;-67
2023/09/04 08:03:11;;;;;;;2.50;2.30;;;19.40;89.80;;;;;;5068661;28;20473;-67
2023/09/04 08:05:38;;;;;;;3.00;2.20;;;19.50;88.40;;;;;;5061398;28;20418;-67
2023/09/04 08:08:09;;;;;;;2.40;2.20;;;19.60;88.40;;;;;;5056007;28;20418;-67
2023/09/04 08:10:39;;;;;;;2.50;2.30;;;19.70;87.70;;;;;;5069913;28;20490;-67
2023/09/04 08:13:06;;;;;;;2.50;2.08;;;19.80;86.60;;;;;;5061436;28;20412;-67
2023/09/04 08:15:33;;;;;;;2.50;2.20;;;19.90;85.50;;;;;;5071456;28;20442;-67
2023/09/04 08:18:00;;;;;;;2.55;2.35;;;20.10;85.10;;;;;;5068101;28;20433;-67
2023/09/04 08:20:27;;;;;;;2.67;2.22;;;20.20;85.00;;;;;;5063794;28;20430;-67
2023/09/04 08:22:54;;;;;;;2.50;2.30;;;20.40;84.10;;;;;;5066540;28;20526;-67
2023/09/04 08:25:22;;;;;;;3.28;2.30;;;20.60;82.70;;;;;;5070911;28;20777;-67
2023/09/04 08:27:48;;;;;;;2.55;2.35;;;20.80;80.80;;;;;;5067022;28;20623;-67
2023/09/04 08:30:15;;;;;;;3.33;2.40;;;20.80;80.80;;;;;;5071023;28;20414;-68
2023/09/04 08:32:42;;;;;;;3.45;2.42;;;20.90;80.30;;;;;;5061600;28;20413;-67
2023/09/04 08:35:09;;;;;;;3.08;2.78;;;21.10;80.20;;;;;;5057782;28;20432;-67
2023/09/04 08:37:36;;;;;;;5.40;2.50;;;21.30;78.90;;;;;;5061859;28;20427;-67
2023/09/04 08:40:03;;;;;;;3.20;2.20;;;21.50;77.70;;;;;;5057497;28;20409;-68
2023/09/04 08:42:31;;;;;;;2.75;2.40;;;21.70;76.20;;;;;;5064848;28;21194;-68
2023/09/04 08:44:59;;;;;;;2.92;2.30;;;21.70;76.00;;;;;;5068933;28;20418;-68
2023/09/04 08:47:26;;;;;;;3.00;2.20;;;21.80;76.30;;;;;;5059349;28;20420;-67
2023/09/04 08:49:54;;;;;;;2.40;2.20;;;21.90;74.80;;;;;;5059631;28;20445;-67
2023/09/04 08:52:21;;;;;;;2.45;2.20;;;22.00;74.40;;;;;;5058857;28;20430;-67
2023/09/04 08:54:48;;;;;;;3.50;2.47;;;22.20;74.60;;;;;;5057763;28;20426;-68
2023/09/04 08:57:16;;;;;;;2.25;2.05;;;22.30;73.50;;;;;;5057250;28;20509;-68
2023/09/04 08:59:44;;;;;;;2.42;2.00;;;22.30;73.80;;;;;;5067529;28;20423;-68
2023/09/04 09:02:16;;;;;;;2.80;2.10;;;22.40;72.80;;;;;;5056220;28;20433;-69
2023/09/04 09:04:43;;;;;;;4.25;2.50;;;22.60;73.10;;;;;;5069706;28;20449;-68
2023/09/04 09:07:11;;;;;;;2.40;2.20;;;22.60;72.30;;;;;;5061135;28;20416;-67
2023/09/04 09:09:40;;;;;;;3.00;2.20;;;22.60;72.20;;;;;;5054030;28;20417;-67
2023/09/04 09:12:07;;;;;;;3.75;2.60;;;22.80;71.40;;;;;;5067454;28;20427;-67
2023/09/04 09:14:35;;;;;;;3.13;2.40;;;22.90;68.70;;;;;;5067506;28;20774;-67
2023/09/04 09:17:08;;;;;;;3.10;2.60;;;22.90;69.50;;;;;;5060834;28;20427;-67
2023/09/04 09:19:35;;;;;;;4.80;2.53;;;22.90;68.80;;;;;;5071653;28;20434;-68
2023/09/04 09:22:12;;;;;;;3.50;2.38;;;23.00;68.70;;;;;;5059431;28;20411;-67
2023/09/04 09:24:53;;;;;;;2.92;2.30;;;23.10;69.20;;;;;;5067742;28;20438;-67
2023/09/04 09:27:21;;;;;;;2.95;2.30;;;23.20;68.80;;;;;;5073386;28;20435;-68
2023/09/04 09:29:48;;;;;;;2.88;2.20;;;23.20;68.80;;;;;;5068905;28;20424;-68
2023/09/04 09:32:18;;;;;;;2.70;2.50;;;23.30;67.50;;;;;;5067546;28;20781;-68
2023/09/04 09:34:52;;;;;;;2.70;2.50;;;23.50;66.40;;;;;;5073258;28;20431;-69
2023/09/04 09:37:18;;;;;;;2.85;2.20;;;23.70;65.60;;;;;;5073610;28;20887;-68
2023/09/04 09:39:45;;;;;;;2.80;2.40;;;23.70;65.90;;;;;;5070126;28;20423;-67
2023/09/04 09:42:12;;;;;;;2.50;2.10;;;23.90;65.00;;;;;;5072202;28;20439;-67
2023/09/04 09:44:39;;;;;;;3.60;3.30;;;23.90;63.60;;;;;;5072736;28;20804;-69
2023/09/04 09:47:07;;;;;;;2.60;2.10;;;23.90;63.90;;;;;;5060363;28;20424;-68
2023/09/04 09:49:37;;;;;;;2.50;2.17;;;23.90;63.60;;;;;;5064592;28;20469;-68
2023/09/04 09:52:07;;;;;;;2.38;2.17;;;24.10;62.70;;;;;;5058937;28;20439;-69
2023/09/04 09:54:35;;;;;;;2.97;2.20;;;24.10;62.30;;;;;;5073134;28;20423;-68
2023/09/04 09:57:04;;;;;;;2.03;1.83;;;24.30;61.10;;;;;;5063035;28;20437;-69
2023/09/04 09:59:31;;;;;;;2.10;1.90;;;24.40;60.00;;;;;;5072734;28;20427;-68
2023/09/04 10:01:58;;;;;;;2.50;2.20;;;24.50;60.10;;;;;;5060280;28;20449;-68
2023/09/04 10:04:26;;;;;;;1.90;1.70;;;24.70;56.70;;;;;;5059151;28;20695;-68
2023/09/04 10:06:59;;;;;;;2.40;2.00;;;24.80;57.60;;;;;;5066975;28;20438;-68
2023/09/04 10:09:28;;;;;;;2.55;1.80;;;24.80;57.70;;;;;;5069279;28;20438;-68
2023/09/04 10:12:03;;;;;;;2.20;2.00;;;24.90;57.10;;;;;;5062003;28;20552;-69
2023/09/04 10:14:36;;;;;;;2.40;2.20;;;25.20;56.10;;;;;;5071153;28;20422;-68
2023/09/04 10:17:03;;;;;;;2.03;1.83;;;25.30;53.60;;;;;;5067907;28;20433;-68
2023/09/04 10:19:32;;;;;;;2.13;1.70;;;25.40;54.30;;;;;;5070414;28;20497;-68
2023/09/04 10:22:09;;;;;;;1.85;1.75;;;25.40;51.60;;;;;;5072561;28;20419;-68
2023/09/04 10:24:41;;;;;;;2.55;2.00;;;25.50;50.30;;;;;;5065222;28;20918;-74
2023/09/04 10:27:09;;;;;;;1.70;1.60;;;25.60;50.80;;;;;;5058494;28;21063;-66
2023/09/04 10:29:45;;;;;;;2.10;1.90;;;25.70;49.40;;;;;;5069091;28;20870;-67
2023/09/04 10:32:14;;;;;;;2.72;1.90;;;25.50;50.90;;;;;;5061854;28;20427;-67
2023/09/04 10:34:41;;;;;;;2.20;2.00;;;25.50;50.70;;;;;;5059335;28;20440;-66
2023/09/04 10:37:12;;;;;;;2.20;1.90;;;25.70;51.00;;;;;;5054461;28;20769;-67
2023/09/04 10:39:40;;;;;;;2.50;1.70;;;25.80;51.90;;;;;;5060778;28;20450;-66
2023/09/04 10:42:08;;;;;;;2.17;1.98;;;26.00;51.70;;;;;;5065089;28;20440;-67
2023/09/04 10:44:45;;;;;;;2.33;1.70;;;26.10;49.30;;;;;;5062406;28;20406;-66
2023/09/04 10:47:12;;;;;;;2.30;2.10;;;26.30;48.80;;;;;;5057169;28;20479;-66
2023/09/04 10:49:39;;;;;;;2.30;1.80;;;26.50;47.80;;;;;;5055745;28;20425;-66
2023/09/04 10:52:06;;;;;;;1.90;1.70;;;26.70;48.00;;;;;;5066546;28;20446;-67
2023/09/04 10:54:35;;;;;;;1.85;1.50;;;26.90;47.10;;;;;;5092038;23;20456;-71
2023/09/04 10:57:05;;;;;;;2.30;1.70;;;27.10;47.20;;;;;;5078055;28;20469;-71
2023/09/04 11:00:01;;;;;;;2.60;1.80;;;27.10;47.20;;;;;;5082931;28;20425;-71
2023/09/04 11:02:30;;;;;;;1.70;1.60;;;27.10;47.20;;;;;;5084037;28;20409;-71
2023/09/04 11:04:57;;;;;;;1.75;1.65;;;27.00;46.90;;;;;;5084985;28;20417;-71
2023/09/04 11:07:26;;;;;;;3.15;2.00;;;26.90;46.30;;;;;;5081621;28;20772;-71
2023/09/04 11:10:01;;;;;;;2.90;2.00;;;26.90;47.30;;;;;;5081744;28;20895;-71
2023/09/04 11:12:31;;;;;;;2.78;1.55;;;27.00;47.50;;;;;;5083326;28;20981;-71
2023/09/04 11:14:59;;;;;;;1.70;1.60;;;27.20;47.80;;;;;;5081038;28;21064;-71
2023/09/04 11:17:28;;;;;;;1.60;1.50;;;27.30;47.10;;;;;;5080921;28;20505;-71
2023/09/04 11:19:55;;;;;;;2.42;1.83;;;27.40;47.20;;;;;;5081834;28;20448;-71
2023/09/04 11:22:25;;;;;;;1.70;1.60;;;27.60;46.70;;;;;;5079792;28;20427;-70
2023/09/04 11:24:53;;;;;;;2.38;1.65;;;27.70;46.80;;;;;;5082162;28;20418;-71
2023/09/04 11:27:21;;;;;;;3.75;1.90;;;27.90;46.50;;;;;;5082632;28;20511;-71
2023/09/04 11:29:48;;;;;;;2.00;1.80;;;28.10;46.40;;;;;;5081927;28;20421;-71
2023/09/04 11:32:16;;;;;;;2.20;1.65;;;28.20;46.20;;;;;;5083393;28;20425;-71
2023/09/04 11:34:43;;;;;;;1.90;1.80;;;28.30;45.90;;;;;;5073730;28;20490;-71
2023/09/04 11:37:11;;;;;;;1.73;1.63;;;28.40;45.80;;;;;;5075711;28;20785;-71
2023/09/04 11:39:52;;;;;;;2.10;1.60;;;28.40;45.80;;;;;;5075761;28;20453;-71
2023/09/04 11:42:21;;;;;;;1.80;1.60;;;28.60;45.70;;;;;;5069571;28;20421;-70
2023/09/04 11:44:48;;;;;;;2.30;1.90;;;28.80;44.90;;;;;;5076582;28;20543;-71
2023/09/04 11:47:15;;;;;;;1.95;1.75;;;28.80;45.00;;;;;;5075449;28;20414;-70
2023/09/04 11:49:42;;;;;;;2.30;1.70;;;28.90;44.80;;;;;;5080251;28;20422;-71
2023/09/04 11:52:10;;;;;;;1.80;1.70;;;29.10;44.70;;;;;;5077911;28;20829;-72
2023/09/04 11:54:37;;;;;;;1.63;1.53;;;29.10;44.00;;;;;;5083702;28;20425;-71
2023/09/04 11:57:04;;;;;;;1.80;1.60;;;29.10;44.50;;;;;;5082707;28;20410;-70
2023/09/04 11:59:35;;;;;;;1.67;1.30;;;29.10;45.00;;;;;;5081964;28;20432;-71
2023/09/04 12:02:02;;;;;;;2.30;1.50;;;29.30;44.50;;;;;;5082863;28;20455;-72
2023/09/04 12:04:31;;;;;;;1.65;1.55;;;29.50;43.10;;;;;;5082251;28;20524;-70
2023/09/04 12:06:59;;;;;;;1.73;1.50;;;29.60;42.90;;;;;;5081067;28;20778;-73
2023/09/04 12:09:26;;;;;;;2.50;1.33;;;29.60;42.80;;;;;;5077309;28;20433;-74
2023/09/04 12:11:53;;;;;;;1.55;1.40;;;29.60;41.70;;;;;;5080727;28;20410;-72
2023/09/04 12:14:20;;;;;;;1.60;1.30;;;29.70;41.00;;;;;;5071172;28;20439;-72
2023/09/04 12:16:48;;;;;;;1.90;1.40;;;29.90;40.40;;;;;;5079943;28;20860;-72
2023/09/04 12:19:16;;;;;;;1.50;1.40;;;30.10;39.50;;;;;;5082274;28;20421;-72
2023/09/04 12:21:43;;;;;;;1.53;1.43;;;30.10;38.90;;;;;;5077253;28;20480;-72
2023/09/04 12:24:14;;;;;;;1.63;1.40;;;30.00;38.30;;;;;;5075222;28;20418;-72
2023/09/04 12:26:41;;;;;;;1.40;1.30;;;29.90;38.60;;;;;;5083382;28;20417;-72
2023/09/04 12:29:09;;;;;;;1.30;1.20;;;30.00;39.00;;;;;;5081251;28;20469;-72
2023/09/04 12:31:36;;;;;;;1.30;1.20;;;30.10;37.60;;;;;;5075443;28;20447;-72
2023/09/04 12:34:05;;;;;;;1.60;1.20;;;30.20;37.60;;;;;;5080121;28;20896;-71
2023/09/04 12:36:33;;;;;;;1.30;1.20;;;30.30;37.30;;;;;;5076968;28;20477;-71
2023/09/04 12:39:00;;;;;;;1.40;1.20;;;30.40;37.70;;;;;;5085448;28;20433;-71
2023/09/04 12:41:29;;;;;;;1.65;1.20;;;30.50;36.60;;;;;;5077363;28;20449;-71
2023/09/04 12:43:57;;;;;;;1.30;1.20;;;30.50;36.40;;;;;;5078628;28;20439;-71
2023/09/04 12:46:24;;;;;;;1.10;1.00;;;30.50;36.30;;;;;;5086498;28;20410;-71
2023/09/04 12:48:51;;;;;;;1.20;1.10;;;30.70;36.40;;;;;;5082558;28;20414;-71
2023/09/04 12:51:19;;;;;;;1.20;1.00;;;30.80;36.30;;;;;;5083627;28;20733;-71